Time;durP1;ratioP1;P1;durP2;ratioP2;P2;SDS_P1;SDS_P2;PMS_P1;PMS_P2;Temp;Humidity;BMP_temperature;BMP_pressure;BME280_temperature;BME280_humidity;BME280_pressure;Samples;Min_cycle;Max_cycle;Signal;HPM_P1;HPM_P2
2022/06/06 00:02:08;;;;;;;;;9.75;8.75;;;;;18.01;76.22;101212.63;4971912;28;45548;-81
2022/06/06 00:04:35;;;;;;;;;8.25;8.25;;;;;17.98;76.52;101209.34;4975123;28;45389;-82
2022/06/06 00:07:01;;;;;;;;;12.00;11.50;;;;;18.00;76.82;101212.78;4967763;28;48696;-81
2022/06/06 00:09:27;;;;;;;;;8.75;7.75;;;;;18.01;76.33;101214.47;4965961;28;46177;-82
2022/06/06 00:11:56;;;;;;;;;12.25;11.25;;;;;18.03;75.83;101212.53;4971022;28;45493;-81
2022/06/06 00:14:21;;;;;;;;;9.25;9.25;;;;;18.00;76.19;101216.31;4975835;28;46040;-81
2022/06/06 00:16:47;;;;;;;;;13.00;11.25;;;;;17.98;76.25;101206.66;4975205;28;46189;-82
2022/06/06 00:19:12;;;;;;;;;13.75;11.75;;;;;17.98;75.51;101209.34;4969372;28;45558;-82
2022/06/06 00:21:39;;;;;;;;;10.00;9.25;;;;;17.99;75.11;101214.63;4971582;28;45371;-81
2022/06/06 00:24:05;;;;;;;;;9.50;9.00;;;;;17.99;74.49;101201.16;4970675;28;45335;-81
2022/06/06 00:26:32;;;;;;;;;12.25;8.25;;;;;17.99;75.11;101198.47;4969618;28;45539;-81
2022/06/06 00:28:58;;;;;;;;;8.00;8.00;;;;;17.98;75.15;101201.25;4967852;28;46151;-81
2022/06/06 00:36:57;;;;;;;;;12.25;10.50;;;;;17.89;75.24;101210.94;4971107;28;47459;-81
2022/06/06 00:39:23;;;;;;;;;10.00;10.00;;;;;17.83;75.83;101204.19;4972625;28;45431;-82
2022/06/06 00:41:50;;;;;;;;;17.50;16.25;;;;;17.79;75.84;101204.53;4971126;28;45542;-81
2022/06/06 00:44:27;;;;;;;;;10.25;8.75;;;;;17.75;76.15;101203.06;4968488;28;45440;-81
2022/06/06 00:47:13;;;;;;;;;10.00;10.00;;;;;17.72;75.84;101198.75;4964297;28;45545;-81
2022/06/06 00:49:44;;;;;;;;;10.25;10.25;;;;;17.66;76.16;101194.72;4966917;28;45385;-81
2022/06/06 00:52:15;;;;;;;;;7.25;7.25;;;;;17.64;75.78;101204.75;4968537;28;45491;-81
2022/06/06 00:54:42;;;;;;;;;10.00;8.25;;;;;17.59;75.58;101195.34;4969221;28;45313;-81
2022/06/06 00:57:13;;;;;;;;;10.50;9.25;;;;;17.53;75.50;101187.72;4967848;28;45289;-81
2022/06/06 00:59:40;;;;;;;;;8.50;8.50;;;;;17.51;76.27;101192.38;4969721;28;45671;-81
2022/06/06 01:02:11;;;;;;;;;13.25;11.00;;;;;17.45;75.55;101186.50;4970271;28;45531;-81
2022/06/06 01:04:39;;;;;;;;;9.25;7.50;;;;;17.41;75.78;101187.72;4967380;28;45687;-81
2022/06/06 01:07:06;;;;;;;;;8.75;7.00;;;;;17.41;76.45;101189.53;4972202;28;45404;-81
2022/06/06 01:09:32;;;;;;;;;13.75;12.25;;;;;17.39;76.28;101188.78;4966711;28;45649;-80
2022/06/06 01:12:00;;;;;;;;;12.25;10.50;;;;;17.35;76.63;101184.66;4970169;28;45876;-81
2022/06/06 01:14:32;;;;;;;;;10.25;10.25;;;;;17.35;76.54;101190.03;4968107;28;45634;-81
2022/06/06 01:17:22;;;;;;;;;11.50;11.50;;;;;17.35;76.67;101179.28;4970337;28;45413;-80
2022/06/06 01:20:23;;;;;;;;;13.25;12.50;;;;;17.35;76.49;101182.81;4969713;28;46138;-81
2022/06/06 01:23:21;;;;;;;;;16.25;15.75;;;;;17.35;76.85;101181.97;4904306;28;45782;-81
2022/06/06 01:25:52;;;;;;;;;11.00;11.00;;;;;17.31;76.67;101181.31;4908516;28;45634;-81
2022/06/06 01:28:36;;;;;;;;;11.00;10.50;;;;;17.30;77.25;101181.47;4898440;28;45583;-80
2022/06/06 01:31:09;;;;;;;;;16.75;11.25;;;;;17.27;77.07;101182.56;4890292;29;47219;-80
2022/06/06 01:34:08;;;;;;;;;25.50;22.75;;;;;17.31;76.38;101175.94;4898035;28;45465;-81
2022/06/06 01:36:36;;;;;;;;;13.00;11.25;;;;;17.29;76.67;101177.91;4886660;28;45504;-80
2022/06/06 01:39:05;;;;;;;;;15.00;14.75;;;;;17.30;76.93;101176.94;4911976;28;45469;-80
2022/06/06 01:41:42;;;;;;;;;14.00;13.00;;;;;17.33;77.04;101175.84;4907211;28;45633;-81
2022/06/06 01:44:23;;;;;;;;;11.50;11.50;;;;;17.36;76.21;101184.50;4909811;28;45446;-80
2022/06/06 01:46:51;;;;;;;;;11.00;11.00;;;;;17.38;77.00;101182.56;4903712;28;45490;-81
2022/06/06 01:49:17;;;;;;;;;15.00;12.00;;;;;17.35;77.29;101180.13;4906668;28;45545;-80
2022/06/06 01:51:42;;;;;;;;;15.00;12.50;;;;;17.35;76.62;101184.66;4911533;28;46208;-81
2022/06/06 01:54:08;;;;;;;;;9.50;9.00;;;;;17.36;77.02;101181.81;4912416;28;45412;-81
2022/06/06 01:56:38;;;;;;;;;17.25;12.00;;;;;17.36;77.17;101181.81;4910260;28;45643;-80
2022/06/06 01:59:04;;;;;;;;;13.50;12.00;;;;;17.35;76.99;101176.56;4941377;28;45586;-81
2022/06/06 02:01:30;;;;;;;;;12.00;12.00;;;;;17.34;77.10;101164.09;4951355;28;46025;-81
2022/06/06 02:03:56;;;;;;;;;11.00;10.75;;;;;17.33;76.82;101160.53;4952472;28;45564;-81
2022/06/06 02:06:21;;;;;;;;;11.25;11.25;;;;;17.34;76.98;101158.69;4952868;28;45772;-81
2022/06/06 02:08:50;;;;;;;;;12.25;9.75;;;;;17.37;76.03;101170.09;4952047;28;45353;-81
2022/06/06 02:11:16;;;;;;;;;12.75;10.00;;;;;17.38;75.97;101162.88;4952435;28;46671;-81
2022/06/06 02:13:41;;;;;;;;;15.25;11.75;;;;;17.36;75.70;101160.28;4969339;28;45679;-81
2022/06/06 02:16:06;;;;;;;;;13.25;10.75;;;;;17.38;75.70;101162.88;4969582;28;47432;-81
2022/06/06 02:18:33;;;;;;;;;11.75;10.75;;;;;17.35;75.37;101160.44;4967623;28;45427;-81
2022/06/06 02:21:01;;;;;;;;;11.50;11.50;;;;;17.38;75.40;101161.03;4969090;28;46519;-81
2022/06/06 02:23:27;;;;;;;;;13.50;11.00;;;;;17.39;75.69;101164.56;4971692;28;46421;-81
2022/06/06 02:25:54;;;;;;;;;16.25;16.25;;;;;17.38;75.63;101165.56;5002706;28;45324;-81
2022/06/06 02:28:19;;;;;;;;;18.00;13.00;;;;;17.37;75.79;101162.03;4971083;28;45496;-81
2022/06/06 02:30:45;;;;;;;;;18.00;16.75;;;;;17.36;76.05;101160.28;4970606;28;46072;-81
2022/06/06 02:33:10;;;;;;;;;12.00;12.00;;;;;17.35;75.93;101160.44;4970578;28;45551;-81
2022/06/06 02:35:41;;;;;;;;;14.75;13.50;;;;;17.32;75.94;101156.16;4972728;28;45503;-79
2022/06/06 02:38:09;;;;;;;;;13.50;12.75;;;;;17.32;76.38;101163.34;4969527;28;46001;-81
2022/06/06 02:40:35;;;;;;;;;6.00;6.00;;;;;17.32;73.27;101152.56;4969946;28;45986;-81
2022/06/06 02:43:01;;;;;;;;;6.25;6.25;;;;;17.29;72.21;101159.06;4966263;28;45570;-81
2022/06/06 02:45:27;;;;;;;;;8.25;8.25;;;;;17.34;73.45;101162.28;4966133;28;45499;-81
2022/06/06 02:47:55;;;;;;;;;7.00;7.00;;;;;17.30;73.73;101155.41;4985360;28;45467;-81
2022/06/06 02:50:25;;;;;;;;;7.75;7.00;;;;;17.32;74.42;101157.97;4969515;28;46444;-81
2022/06/06 02:52:50;;;;;;;;;5.00;5.00;;;;;17.32;71.90;101161.53;4970101;28;45348;-81
2022/06/06 02:55:16;;;;;;;;;3.00;3.00;;;;;17.37;70.61;101158.47;4968208;28;45610;-81
2022/06/06 02:57:49;;;;;;;;;5.00;5.00;;;;;17.36;70.85;101159.44;4970400;28;45727;-81
2022/06/06 03:00:27;;;;;;;;;8.25;6.00;;;;;17.39;70.49;101154.69;4970440;28;45734;-81
2022/06/06 03:02:54;;;;;;;;;6.25;6.25;;;;;17.42;68.99;101154.44;4971171;28;45586;-81
2022/06/06 03:05:20;;;;;;;;;4.00;2.25;;;;;17.40;69.38;101159.09;4969963;28;45577;-82
2022/06/06 03:08:02;;;;;;;;;5.00;5.00;;;;;17.40;67.70;101160.94;4972583;28;45480;-81
2022/06/06 03:10:33;;;;;;;;;3.00;3.00;;;;;17.38;68.12;101160.19;4969855;28;47207;-81
2022/06/06 03:13:12;;;;;;;;;3.00;3.00;;;;;17.37;66.94;101164.72;4969365;28;45531;-80
2022/06/06 03:22:25;;;;;;;;;4.00;4.00;;;;;17.22;66.76;101172.16;4971555;28;45655;-81
2022/06/06 03:24:57;;;;;;;;;3.25;3.25;;;;;17.17;65.07;101168.09;4914116;28;45375;-81
2022/06/06 03:27:46;;;;;;;;;1.50;1.50;;;;;17.08;65.61;101171.47;4912267;28;45338;-81
2022/06/06 03:30:20;;;;;;;;;2.00;2.00;;;;;17.03;66.52;101175.41;4916652;28;45499;-81
2022/06/06 03:33:06;;;;;;;;;2.00;2.00;;;;;17.04;66.96;101179.78;4914414;28;46235;-81
2022/06/06 03:35:56;;;;;;;;;5.25;3.75;;;;;17.03;66.73;101177.22;4915537;28;45481;-81
2022/06/06 03:38:40;;;;;;;;;3.00;3.00;;;;;16.99;68.08;101170.38;4915639;28;45357;-81
2022/06/06 03:41:29;;;;;;;;;3.00;3.00;;;;;16.93;68.62;101166.31;4915986;28;45379;-81
2022/06/06 03:44:17;;;;;;;;;2.50;2.50;;;;;16.85;69.51;101176.78;4911976;28;46235;-81
2022/06/06 03:46:53;;;;;;;;;5.50;3.75;;;;;16.78;70.09;101170.13;4915891;28;45529;-81
2022/06/06 03:49:24;;;;;;;;;5.00;3.00;;;;;16.76;68.59;101172.94;4932019;28;45765;-81
2022/06/06 03:52:21;;;;;;;;;5.25;5.25;;;;;16.69;69.62;101174.38;4928308;28;45831;-81
2022/06/06 03:55:05;;;;;;;;;9.75;9.75;;;;;16.66;70.43;101173.72;4906756;28;46324;-81
2022/06/06 03:57:34;;;;;;;;;4.25;4.00;;;;;16.65;68.75;101182.78;4915625;28;45469;-81
2022/06/06 04:00:06;;;;;;;;;2.75;2.00;;;;;16.62;67.85;101178.50;4901208;28;45336;-81
2022/06/06 04:02:35;;;;;;;;;2.25;2.25;;;;;16.65;66.99;101178.25;4961583;28;47529;-82
2022/06/06 04:05:08;;;;;;;;;1.75;1.75;;;;;16.65;67.02;101182.78;4972339;28;46299;-81
2022/06/06 04:07:34;;;;;;;;;4.50;4.50;;;;;16.67;68.18;101184.38;4981563;28;45424;-81
2022/06/06 04:10:00;;;;;;;;;3.00;3.00;;;;;16.68;67.25;101182.53;4990907;28;45179;-81
2022/06/06 04:13:00;;;;;;;;;3.75;3.75;;;;;16.67;67.79;101194.25;4977984;28;45414;-80
2022/06/06 04:15:46;;;;;;;;;2.75;2.75;;;;;16.69;67.54;101198.56;4975757;28;45349;-81
2022/06/06 04:18:31;;;;;;;;;3.75;3.75;;;;;16.71;66.69;101190.38;4974093;28;45412;-81
2022/06/06 04:21:24;;;;;;;;;3.50;3.50;;;;;16.69;68.02;101205.75;4977390;28;45397;-80
2022/06/06 04:23:52;;;;;;;;;5.00;3.75;;;;;16.66;69.04;101203.31;4975844;28;45361;-81
2022/06/06 04:26:28;;;;;;;;;3.00;3.00;;;;;16.67;67.66;101197.81;4976314;28;45504;-80
2022/06/06 04:29:31;;;;;;;;;5.25;5.25;;;;;16.67;67.93;101194.25;4976571;28;45420;-81
2022/06/06 04:32:14;;;;;;;;;4.00;4.00;;;;;16.72;67.06;101206.41;4970911;28;48154;-81
2022/06/06 04:34:45;;;;;;;;;1.75;1.75;;;;;16.73;66.14;101191.97;4965943;28;45478;-81
2022/06/06 04:37:20;;;;;;;;;4.25;2.75;;;;;16.73;66.85;101193.81;4965833;28;47331;-81
2022/06/06 04:40:06;;;;;;;;;3.75;2.75;;;;;16.77;68.36;101195.31;4977013;28;45446;-81
2022/06/06 04:42:51;;;;;;;;;2.50;2.50;;;;;16.79;67.45;101201.47;4977093;28;45405;-81
2022/06/06 04:45:42;;;;;;;;;2.75;2.75;;;;;16.78;67.30;101197.00;4974621;28;45634;-81
2022/06/06 04:48:08;;;;;;;;;2.00;2.00;;;;;16.77;68.59;101193.47;4973650;28;45416;-81
2022/06/06 04:50:35;;;;;;;;;2.00;2.00;;;;;16.78;69.03;101191.63;4976641;28;45397;-81
2022/06/06 04:53:09;;;;;;;;;3.75;2.00;;;;;16.83;67.30;101201.09;4976971;28;45431;-80
2022/06/06 04:55:40;;;;;;;;;2.00;2.00;;;;;16.87;67.89;101190.13;4976870;28;45318;-81
2022/06/06 04:58:08;;;;;;;;;3.00;3.00;;;;;16.91;67.44;101192.47;4976659;28;45603;-81
2022/06/06 05:00:35;;;;;;;;;2.00;2.00;;;;;16.91;67.07;101195.16;4976784;28;45456;-81
2022/06/06 05:03:01;;;;;;;;;2.75;2.00;;;;;16.94;67.36;101192.22;4977306;28;45440;-81
2022/06/06 05:05:39;;;;;;;;;3.25;3.25;;;;;16.93;67.50;101197.72;4976602;28;45532;-81
2022/06/06 05:08:25;;;;;;;;;4.00;3.00;;;;;16.97;68.15;101194.69;4976312;28;45451;-81
2022/06/06 05:11:03;;;;;;;;;5.00;3.50;;;;;16.97;68.50;101192.00;4976366;28;45397;-81
2022/06/06 05:14:06;;;;;;;;;4.25;4.00;;;;;16.98;68.44;101198.22;4976527;28;45471;-81
2022/06/06 05:16:43;;;;;;;;;4.00;4.00;;;;;16.98;68.81;101185.66;4950302;28;45379;-81
2022/06/06 05:19:36;;;;;;;;;3.00;3.00;;;;;16.96;68.63;101194.81;4938348;28;47131;-81
2022/06/06 05:22:27;;;;;;;;;3.25;3.25;;;;;16.95;67.58;101202.00;4951099;28;45465;-81
2022/06/06 05:24:52;;;;;;;;;3.00;3.00;;;;;16.93;66.75;101195.91;4954814;28;45347;-81
2022/06/06 05:27:40;;;;;;;;;2.75;2.00;;;;;16.91;67.08;101197.84;4953677;28;45608;-82
2022/06/06 05:30:41;;;;;;;;;0.75;0.75;;;;;16.89;66.19;101199.78;4938202;28;46209;-81
2022/06/06 05:33:27;;;;;;;;;0.75;0.75;;;;;16.88;65.58;101202.59;4940367;28;45520;-80
2022/06/06 05:36:17;;;;;;;;;3.00;2.00;;;;;16.80;64.85;101204.00;4941001;28;45409;-81
2022/06/06 05:39:13;;;;;;;;;3.00;1.00;;;;;16.64;64.58;101205.25;4941797;28;45388;-81
2022/06/06 05:41:44;;;;;;;;;0.75;0.75;;;;;16.60;65.21;101204.63;4943572;28;48115;-80
2022/06/06 05:44:16;;;;;;;;;0.75;0.75;;;;;16.62;65.55;101202.69;4943296;28;45304;-81
2022/06/06 05:46:59;;;;;;;;;0.75;0.75;;;;;16.63;65.65;101209.78;4943381;28;45520;-81
2022/06/06 05:49:45;;;;;;;;;1.75;1.50;;;;;16.64;65.23;101207.94;4941103;28;45511;-81
2022/06/06 05:52:34;;;;;;;;;1.25;1.00;;;;;16.61;64.33;101214.41;4975479;28;46065;-81
2022/06/06 05:55:13;;;;;;;;;2.00;2.00;;;;;16.60;65.94;101213.53;4963523;28;45317;-80
2022/06/06 05:58:03;;;;;;;;;0.75;0.75;;;;;16.62;65.22;101216.13;4971623;28;45483;-80
2022/06/06 06:01:16;;;;;;;;;2.25;0.75;;;;;16.62;65.08;101210.75;4974590;28;45659;-81
2022/06/06 06:04:03;;;;;;;;;1.00;1.00;;;;;16.55;64.32;101215.72;4960765;28;46229;-80
2022/06/06 06:06:47;;;;;;;;;0.75;0.75;;;;;16.49;65.00;101223.38;4974285;28;45566;-82
2022/06/06 06:09:21;;;;;;;;;1.75;1.00;;;;;16.49;65.44;101226.06;4972774;28;45338;-81
2022/06/06 06:11:55;;;;;;;;;0.50;0.50;;;;;16.49;65.12;101220.69;4975918;28;45444;-80
2022/06/06 06:14:38;;;;;;;;;0.00;0.00;;;;;16.49;65.23;101226.91;4975232;28;45538;-81
2022/06/06 06:17:04;;;;;;;;;0.75;0.75;;;;;16.47;65.53;101222.63;4974464;28;45488;-80
2022/06/06 06:19:37;;;;;;;;;3.00;2.00;;;;;16.47;65.26;101228.84;4975406;28;45393;-81
2022/06/06 06:22:05;;;;;;;;;0.50;0.50;;;;;16.50;65.15;101236.69;4974795;28;45514;-80
2022/06/06 06:24:33;;;;;;;;;1.75;1.75;;;;;16.49;65.51;101232.28;4975328;28;47370;-81
2022/06/06 06:27:01;;;;;;;;;1.00;1.00;;;;;16.54;65.64;101235.47;4975760;28;45378;-80
2022/06/06 06:29:27;;;;;;;;;1.25;1.25;;;;;16.59;65.63;101243.22;4974794;28;45418;-80
2022/06/06 06:32:08;;;;;;;;;1.00;1.00;;;;;16.61;65.59;101242.13;4974496;28;45565;-81
2022/06/06 06:34:34;;;;;;;;;0.00;0.00;;;;;16.64;65.59;101241.03;4974331;28;45564;-81
2022/06/06 06:37:53;;;;;;;;;1.75;0.75;;;;;16.67;64.89;101246.22;4975348;28;45560;-81
2022/06/06 06:40:28;;;;;;;;;1.75;1.75;;;;;16.68;65.25;101250.59;4904485;28;45550;-81
2022/06/06 06:43:12;;;;;;;;;2.00;1.00;;;;;16.76;65.16;101250.03;4902210;28;45412;-81
2022/06/06 06:45:44;;;;;;;;;0.00;0.00;;;;;16.77;64.96;101252.63;4913864;28;48486;-80
2022/06/06 06:48:12;;;;;;;;;1.50;1.50;;;;;16.77;65.45;101249.94;4900806;28;45515;-81
2022/06/06 06:51:07;;;;;;;;;1.00;1.00;;;;;16.85;65.59;101256.59;4911968;28;45349;-81
2022/06/06 06:53:59;;;;;;;;;0.75;0.75;;;;;16.90;65.72;101257.97;4909595;28;45427;-81
2022/06/06 06:56:49;;;;;;;;;1.00;1.00;;;;;16.96;64.54;101257.53;4919729;28;46830;-79
2022/06/06 06:59:33;;;;;;;;;1.00;1.00;;;;;16.87;64.52;101249.28;4911711;28;45449;-78
2022/06/06 07:08:41;;;;;;;;;1.75;1.25;;;;;17.00;64.86;101244.69;4902900;28;47018;-78
2022/06/06 07:11:30;;;;;;;;;1.50;1.50;;;;;17.07;64.62;101245.94;4909449;28;47791;-78
2022/06/06 07:14:31;;;;;;;;;1.50;1.50;;;;;17.12;64.11;101243.75;4910261;28;45505;-78
